Time;durP1;ratioP1;P1;durP2;ratioP2;P2;SDS_P1;SDS_P2;PMS_P1;PMS_P2;Temp;Humidity;BMP_temperature;BMP_pressure;BME280_temperature;BME280_humidity;BME280_pressure;Samples;Min_cycle;Max_cycle;Signal;HPM_P1;HPM_P2
2020/12/04 00:01:33;;;;;;;0.50;0.50;;;0.50;99.90;;;;;;5070370;28;20223;-85
2020/12/04 00:03:59;;;;;;;0.60;0.60;;;0.50;99.90;;;;;;5070073;28;20685;-85
2020/12/04 00:06:25;;;;;;;0.50;0.50;;;0.40;99.90;;;;;;5070090;28;20257;-85
2020/12/04 00:08:51;;;;;;;0.60;0.60;;;0.40;99.90;;;;;;5070827;28;20261;-85
2020/12/04 00:11:17;;;;;;;0.50;0.50;;;0.40;99.90;;;;;;5070291;28;20231;-85
2020/12/04 00:13:44;;;;;;;0.60;0.60;;;0.40;99.90;;;;;;5070764;28;20211;-85
2020/12/04 00:16:10;;;;;;;0.55;0.55;;;0.30;99.90;;;;;;5070745;28;20260;-85
2020/12/04 00:18:36;;;;;;;0.60;0.60;;;0.30;99.90;;;;;;5070451;28;20716;-85
2020/12/04 00:21:02;;;;;;;0.60;0.60;;;0.30;99.90;;;;;;5070048;28;20257;-85
2020/12/04 00:23:29;;;;;;;0.60;0.60;;;0.30;99.90;;;;;;5070065;28;20199;-85
2020/12/04 00:25:56;;;;;;;0.50;0.50;;;0.30;99.90;;;;;;5072537;28;20203;-85
2020/12/04 00:28:22;;;;;;;0.60;0.60;;;0.30;99.90;;;;;;5072200;28;20210;-85
2020/12/04 00:30:49;;;;;;;0.60;0.60;;;0.20;99.90;;;;;;5071982;28;20864;-86
2020/12/04 00:33:15;;;;;;;0.60;0.60;;;0.20;99.90;;;;;;5070916;28;20195;-85
2020/12/04 00:35:41;;;;;;;0.50;0.50;;;0.20;99.90;;;;;;5071868;28;20204;-86
2020/12/04 00:38:07;;;;;;;0.55;0.55;;;0.20;99.90;;;;;;5071381;28;20248;-85
2020/12/04 00:40:34;;;;;;;0.50;0.50;;;0.20;99.90;;;;;;5071708;28;20208;-86
2020/12/04 00:43:00;;;;;;;0.60;0.60;;;0.10;99.90;;;;;;5071547;28;20296;-83
2020/12/04 00:45:26;;;;;;;0.57;0.57;;;0.10;99.90;;;;;;5071412;28;20203;-83
2020/12/04 00:47:53;;;;;;;0.60;0.60;;;0.10;99.90;;;;;;5071144;28;20249;-83
2020/12/04 00:50:19;;;;;;;0.60;0.60;;;0.10;99.90;;;;;;5071380;28;20203;-83
2020/12/04 00:52:47;;;;;;;0.60;0.60;;;0.10;99.90;;;;;;5071377;28;20204;-83
2020/12/04 00:55:15;;;;;;;0.60;0.60;;;0.00;99.90;;;;;;5075278;28;20294;-83
2020/12/04 00:57:41;;;;;;;0.60;0.60;;;0.00;99.90;;;;;;5075551;28;20860;-83
2020/12/04 01:00:09;;;;;;;0.60;0.60;;;0.00;99.90;;;;;;5075830;28;20203;-83
2020/12/04 01:02:36;;;;;;;0.57;0.57;;;0.00;99.90;;;;;;5075319;28;20231;-83
2020/12/04 01:05:04;;;;;;;0.57;0.57;;;0.00;99.90;;;;;;5075497;28;20266;-83
2020/12/04 01:07:30;;;;;;;0.50;0.50;;;0.00;99.90;;;;;;5075208;28;20252;-83
2020/12/04 01:09:56;;;;;;;0.60;0.60;;;0.00;99.90;;;;;;5075464;28;20211;-83
2020/12/04 01:12:25;;;;;;;0.60;0.60;;;0.00;99.90;;;;;;5074766;28;20763;-83
2020/12/04 01:14:52;;;;;;;0.60;0.60;;;-0.10;99.90;;;;;;5075160;28;20211;-83
2020/12/04 01:17:18;;;;;;;0.60;0.60;;;-0.10;99.90;;;;;;5075141;28;20257;-83
2020/12/04 01:19:45;;;;;;;0.60;0.60;;;-0.10;99.90;;;;;;5075227;28;20261;-83
2020/12/04 01:22:13;;;;;;;0.60;0.60;;;-0.10;99.90;;;;;;5074739;28;20705;-83
2020/12/04 01:24:39;;;;;;;0.60;0.60;;;-0.30;99.90;;;;;;5074855;28;20208;-83
2020/12/04 01:27:05;;;;;;;0.60;0.60;;;-0.10;99.90;;;;;;5075043;28;20601;-83
2020/12/04 01:29:31;;;;;;;0.60;0.60;;;-0.10;99.90;;;;;;5074767;28;20628;-83
2020/12/04 01:31:57;;;;;;;0.50;0.50;;;-0.20;99.90;;;;;;5074638;28;20257;-83
2020/12/04 01:34:23;;;;;;;0.60;0.60;;;-0.20;99.90;;;;;;5074953;28;20254;-82
2020/12/04 01:36:50;;;;;;;0.60;0.60;;;-0.20;99.90;;;;;;5074938;28;20210;-83
2020/12/04 01:39:17;;;;;;;0.50;0.50;;;-0.20;99.90;;;;;;5074404;28;20655;-82
2020/12/04 01:41:43;;;;;;;0.60;0.60;;;-0.20;99.90;;;;;;5074636;28;20645;-83
2020/12/04 01:44:09;;;;;;;0.60;0.60;;;0.00;99.90;;;;;;5074942;28;20253;-82
2020/12/04 01:46:35;;;;;;;0.60;0.60;;;0.50;99.90;;;;;;5074798;28;20228;-82
2020/12/04 01:49:02;;;;;;;0.60;0.60;;;-0.30;99.90;;;;;;5074570;28;20897;-82
2020/12/04 01:51:29;;;;;;;0.60;0.60;;;-0.30;99.90;;;;;;5074287;28;20801;-82
2020/12/04 01:53:56;;;;;;;0.60;0.60;;;-0.30;99.90;;;;;;5074519;28;20207;-82
2020/12/04 01:56:24;;;;;;;0.60;0.60;;;-0.30;99.90;;;;;;5074293;28;21139;-82
2020/12/04 01:58:50;;;;;;;0.50;0.50;;;-0.30;99.90;;;;;;5074262;28;20249;-82
2020/12/04 02:01:19;;;;;;;0.60;0.60;;;-0.30;99.90;;;;;;5074257;28;20212;-82
2020/12/04 02:03:45;;;;;;;0.60;0.60;;;-0.40;99.90;;;;;;5074015;28;20605;-82
2020/12/04 02:06:19;;;;;;;0.50;0.50;;;-0.40;99.90;;;;;;5074018;28;20207;-82
2020/12/04 02:08:51;;;;;;;0.50;0.50;;;-0.40;99.90;;;;;;5073926;28;20203;-82
2020/12/04 02:11:20;;;;;;;0.60;0.60;;;-0.40;99.90;;;;;;5073659;28;20227;-82
2020/12/04 02:13:49;;;;;;;0.60;0.60;;;-0.40;99.90;;;;;;5073817;28;20256;-82
2020/12/04 02:16:17;;;;;;;0.60;0.60;;;-0.40;99.90;;;;;;5073927;28;20277;-82
2020/12/04 02:18:43;;;;;;;0.60;0.60;;;-0.40;99.90;;;;;;5074238;28;20265;-82
2020/12/04 02:21:10;;;;;;;0.52;0.52;;;-0.40;99.90;;;;;;5073843;28;20207;-82
2020/12/04 02:23:36;;;;;;;0.60;0.60;;;-0.40;99.90;;;;;;5073598;28;20678;-82
2020/12/04 02:26:04;;;;;;;0.60;0.60;;;-0.40;99.90;;;;;;5074112;28;20200;-82
2020/12/04 02:28:31;;;;;;;0.52;0.52;;;-0.40;99.90;;;;;;5073565;28;20222;-83
2020/12/04 02:30:58;;;;;;;0.60;0.60;;;-0.50;99.90;;;;;;5073669;28;20257;-83
2020/12/04 02:33:24;;;;;;;0.60;0.60;;;-0.50;99.90;;;;;;5073361;28;20211;-83
2020/12/04 02:35:50;;;;;;;0.60;0.60;;;-0.50;99.90;;;;;;5073508;28;20795;-83
2020/12/04 02:38:17;;;;;;;0.60;0.60;;;-0.50;99.90;;;;;;5073701;28;20696;-83
2020/12/04 02:40:43;;;;;;;0.60;0.60;;;-0.50;99.90;;;;;;5073390;28;20638;-83
2020/12/04 02:43:09;;;;;;;0.50;0.50;;;-0.60;99.90;;;;;;5072851;28;20811;-83
2020/12/04 02:45:35;;;;;;;0.60;0.60;;;-0.50;99.90;;;;;;5072522;28;20298;-82
2020/12/04 02:48:02;;;;;;;0.60;0.60;;;-0.50;99.90;;;;;;5071981;28;20208;-82
2020/12/04 02:50:28;;;;;;;0.52;0.52;;;-0.60;99.90;;;;;;5071828;28;20191;-83
2020/12/04 02:52:54;;;;;;;0.50;0.50;;;-0.50;99.90;;;;;;5071987;28;20253;-83
2020/12/04 02:55:21;;;;;;;0.60;0.60;;;-0.60;99.90;;;;;;5071683;28;20265;-82
2020/12/04 02:57:47;;;;;;;0.50;0.50;;;-0.60;99.90;;;;;;5071844;28;20204;-83
2020/12/04 03:00:15;;;;;;;0.52;0.52;;;-0.60;99.90;;;;;;5073175;28;20875;-83
2020/12/04 03:02:41;;;;;;;0.52;0.52;;;-0.60;99.90;;;;;;5073189;28;20693;-83
2020/12/04 03:05:07;;;;;;;0.50;0.50;;;-0.60;99.90;;;;;;5073038;28;20249;-82
2020/12/04 03:07:33;;;;;;;0.60;0.60;;;-0.60;99.90;;;;;;5072714;28;20212;-83
2020/12/04 03:10:00;;;;;;;0.60;0.60;;;-0.60;99.90;;;;;;5073226;28;20623;-85
2020/12/04 03:12:26;;;;;;;0.50;0.50;;;-0.60;99.90;;;;;;5072525;28;20709;-85
2020/12/04 03:14:53;;;;;;;0.60;0.60;;;-0.70;99.90;;;;;;5072750;28;20216;-85
2020/12/04 03:17:19;;;;;;;0.60;0.60;;;-0.60;99.90;;;;;;5071333;28;20208;-83
2020/12/04 03:19:45;;;;;;;0.60;0.60;;;-0.60;99.90;;;;;;5071513;28;20203;-83
2020/12/04 03:22:11;;;;;;;0.60;0.60;;;-0.60;99.90;;;;;;5071226;28;20235;-83
2020/12/04 03:24:37;;;;;;;0.60;0.60;;;-0.60;99.90;;;;;;5071379;28;20199;-83
2020/12/04 03:27:03;;;;;;;0.60;0.60;;;-0.60;99.90;;;;;;5071569;28;20246;-82
2020/12/04 03:29:30;;;;;;;0.60;0.60;;;-0.60;99.90;;;;;;5071306;28;20208;-82
2020/12/04 03:31:56;;;;;;;0.52;0.52;;;-0.60;99.90;;;;;;5071627;28;20279;-82
2020/12/04 03:34:22;;;;;;;0.60;0.60;;;-0.60;99.90;;;;;;5072588;28;20658;-83
2020/12/04 03:36:48;;;;;;;0.60;0.60;;;-0.70;99.90;;;;;;5072225;28;20200;-83
2020/12/04 03:39:14;;;;;;;0.60;0.60;;;-0.70;99.90;;;;;;5072032;28;20234;-82
2020/12/04 03:41:42;;;;;;;0.60;0.60;;;-0.60;99.90;;;;;;5072648;28;20261;-82
2020/12/04 03:44:08;;;;;;;0.60;0.60;;;-0.60;99.90;;;;;;5072501;28;20555;-83
2020/12/04 03:46:36;;;;;;;0.60;0.60;;;-0.60;99.90;;;;;;5071973;28;20254;-83
2020/12/04 03:49:03;;;;;;;0.60;0.60;;;-0.70;99.90;;;;;;5072153;28;20199;-83
2020/12/04 03:51:29;;;;;;;0.60;0.60;;;-0.60;99.90;;;;;;5072055;28;20200;-82
2020/12/04 03:53:55;;;;;;;0.60;0.60;;;-0.60;99.90;;;;;;5072043;28;20207;-82
2020/12/04 03:56:22;;;;;;;0.60;0.60;;;-0.60;99.90;;;;;;5071619;28;20253;-82
2020/12/04 03:58:48;;;;;;;0.52;0.52;;;-0.60;99.90;;;;;;5072292;28;20200;-83
2020/12/04 04:01:14;;;;;;;0.57;0.57;;;-0.60;99.90;;;;;;5071802;28;20203;-82
2020/12/04 04:03:41;;;;;;;0.60;0.60;;;-0.60;99.90;;;;;;5071738;28;20293;-82
2020/12/04 04:06:07;;;;;;;0.60;0.60;;;-0.60;99.90;;;;;;5071869;28;20195;-82
2020/12/04 04:08:33;;;;;;;0.60;0.60;;;-0.60;99.90;;;;;;5071889;28;20226;-83
2020/12/04 04:11:00;;;;;;;0.60;0.60;;;-0.50;99.90;;;;;;5071464;28;20270;-82
2020/12/04 04:13:26;;;;;;;0.60;0.60;;;-0.60;99.90;;;;;;5071619;28;20283;-82
2020/12/04 04:15:52;;;;;;;0.60;0.60;;;-0.60;99.90;;;;;;5071769;28;20295;-85
2020/12/04 04:18:18;;;;;;;0.50;0.50;;;-0.50;99.90;;;;;;5071654;28;20222;-85
2020/12/04 04:20:46;;;;;;;0.50;0.50;;;-0.50;99.90;;;;;;5071614;28;20603;-85
2020/12/04 04:23:12;;;;;;;0.60;0.60;;;-0.50;99.90;;;;;;5071563;28;20223;-82
2020/12/04 04:25:38;;;;;;;0.60;0.60;;;-0.50;99.90;;;;;;5072096;28;20257;-82
2020/12/04 04:28:10;;;;;;;0.60;0.60;;;-0.50;99.90;;;;;;5071079;28;20204;-82
2020/12/04 04:30:36;;;;;;;0.60;0.60;;;-0.50;99.90;;;;;;5071624;28;20206;-82
2020/12/04 04:33:02;;;;;;;0.60;0.60;;;-0.50;99.90;;;;;;5071580;28;20210;-82
2020/12/04 04:35:28;;;;;;;0.57;0.57;;;-0.50;99.90;;;;;;5071545;28;20257;-82
2020/12/04 04:37:55;;;;;;;0.60;0.60;;;-0.50;99.90;;;;;;5071327;28;20596;-82
2020/12/04 04:40:23;;;;;;;0.55;0.55;;;-0.50;99.90;;;;;;5071203;28;20199;-82
2020/12/04 04:42:49;;;;;;;0.50;0.50;;;-0.50;99.90;;;;;;5071601;28;20928;-82
2020/12/04 04:45:16;;;;;;;0.60;0.60;;;-0.40;99.90;;;;;;5071373;28;20670;-82
2020/12/04 04:47:45;;;;;;;0.60;0.60;;;-0.40;99.90;;;;;;5071353;28;20261;-82
2020/12/04 04:50:11;;;;;;;0.60;0.60;;;-0.40;99.90;;;;;;5069691;28;20665;-82
2020/12/04 04:52:39;;;;;;;0.60;0.60;;;-0.40;99.90;;;;;;5069217;28;20261;-82
2020/12/04 04:55:06;;;;;;;0.57;0.57;;;-0.40;99.90;;;;;;5070805;28;20208;-83
2020/12/04 04:57:32;;;;;;;0.60;0.60;;;-0.40;99.90;;;;;;5070121;28;20199;-82
2020/12/04 04:59:59;;;;;;;0.52;0.52;;;-0.40;99.90;;;;;;5070697;28;20562;-82
2020/12/04 05:02:28;;;;;;;0.60;0.60;;;-0.40;99.90;;;;;;5071336;28;20314;-82
2020/12/04 05:04:55;;;;;;;0.60;0.60;;;-0.40;99.90;;;;;;5071544;28;20207;-85
2020/12/04 05:07:27;;;;;;;0.50;0.50;;;-0.30;99.90;;;;;;5071603;28;20208;-83
2020/12/04 05:09:53;;;;;;;0.60;0.60;;;-0.30;99.90;;;;;;5071337;28;20316;-82
2020/12/04 05:12:20;;;;;;;0.60;0.60;;;-0.30;99.90;;;;;;5070647;28;20286;-82
2020/12/04 05:14:46;;;;;;;0.50;0.50;;;-0.30;99.90;;;;;;5070987;28;20207;-85
2020/12/04 05:17:12;;;;;;;0.50;0.50;;;-0.20;99.90;;;;;;5071402;28;20567;-85
2020/12/04 05:19:42;;;;;;;0.60;0.60;;;-0.20;99.90;;;;;;5071360;28;20261;-82
2020/12/04 05:22:09;;;;;;;0.50;0.50;;;-0.20;99.90;;;;;;5070368;28;20519;-82
2020/12/04 05:24:36;;;;;;;0.60;0.60;;;-0.20;99.90;;;;;;5071421;28;20196;-82
2020/12/04 05:27:24;;;;;;;0.60;0.60;;;-0.20;99.90;;;;;;5070825;28;20207;-82
2020/12/04 05:29:52;;;;;;;0.50;0.50;;;-0.20;99.90;;;;;;5070763;28;20223;-83
2020/12/04 05:32:18;;;;;;;0.50;0.50;;;-0.10;99.90;;;;;;5069050;28;20559;-82
2020/12/04 05:34:44;;;;;;;0.50;0.50;;;-0.20;99.90;;;;;;5069380;28;20433;-81
2020/12/04 05:37:11;;;;;;;0.60;0.60;;;-0.20;99.90;;;;;;5070356;28;20208;-81
2020/12/04 05:39:45;;;;;;;0.60;0.60;;;-0.20;99.90;;;;;;5072350;28;20205;-82
2020/12/04 05:42:11;;;;;;;0.60;0.60;;;-0.10;99.90;;;;;;5074798;28;20247;-82
2020/12/04 05:44:53;;;;;;;0.60;0.60;;;-0.10;99.90;;;;;;5074771;28;20200;-82
2020/12/04 05:47:20;;;;;;;0.60;0.60;;;-0.10;99.90;;;;;;5074954;28;20239;-82
2020/12/04 05:49:46;;;;;;;0.60;0.60;;;-0.10;99.90;;;;;;5074758;28;20203;-82
2020/12/04 05:52:15;;;;;;;0.57;0.57;;;0.00;99.90;;;;;;5074913;28;20195;-83
2020/12/04 05:54:43;;;;;;;0.60;0.60;;;-0.10;99.90;;;;;;5074884;28;20705;-82
2020/12/04 05:57:14;;;;;;;0.60;0.60;;;-0.10;99.90;;;;;;5074817;28;20204;-82
2020/12/04 05:59:45;;;;;;;0.60;0.60;;;-0.10;99.90;;;;;;5074888;28;20257;-82
2020/12/04 06:02:16;;;;;;;0.60;0.60;;;-0.10;99.90;;;;;;5074221;28;20231;-83
2020/12/04 06:04:46;;;;;;;0.55;0.55;;;-0.10;99.90;;;;;;5074282;28;20230;-83
2020/12/04 06:07:13;;;;;;;0.60;0.60;;;-0.10;99.90;;;;;;5074506;28;20231;-83
2020/12/04 06:09:40;;;;;;;0.60;0.60;;;-0.10;99.90;;;;;;5073677;28;20629;-83
2020/12/04 06:12:11;;;;;;;0.60;0.60;;;-0.10;99.90;;;;;;5074147;28;20294;-83
2020/12/04 06:14:37;;;;;;;0.60;0.60;;;-0.10;99.90;;;;;;5074414;28;20290;-83
2020/12/04 06:17:12;;;;;;;0.52;0.52;;;-0.10;99.90;;;;;;5071872;28;20210;-83
2020/12/04 06:19:40;;;;;;;0.50;0.50;;;-0.10;99.90;;;;;;5071144;28;20529;-84
2020/12/04 06:22:07;;;;;;;0.60;0.60;;;-0.10;99.90;;;;;;5074125;28;20203;-84
2020/12/04 06:25:00;;;;;;;0.50;0.50;;;-0.10;99.90;;;;;;5073279;28;20257;-84
2020/12/04 06:27:44;;;;;;;0.57;0.57;;;-0.10;99.90;;;;;;5073661;28;20195;-84
2020/12/04 06:30:11;;;;;;;0.60;0.60;;;-0.10;99.90;;;;;;5074418;28;20203;-84
2020/12/04 06:32:42;;;;;;;0.50;0.50;;;-0.20;99.90;;;;;;5074148;28;20207;-84
2020/12/04 06:35:09;;;;;;;0.60;0.60;;;-0.20;99.90;;;;;;5073640;28;20207;-84
2020/12/04 06:37:40;;;;;;;0.60;0.60;;;-0.20;99.90;;;;;;5072694;28;20745;-84
2020/12/04 06:40:28;;;;;;;0.60;0.60;;;-0.20;99.90;;;;;;5074163;28;20293;-83
2020/12/04 06:42:55;;;;;;;0.60;0.60;;;-0.20;99.90;;;;;;5069065;28;20228;-84
2020/12/04 06:45:22;;;;;;;0.60;0.60;;;-0.10;99.90;;;;;;5073293;28;20204;-84
2020/12/04 06:48:12;;;;;;;0.55;0.55;;;-0.10;99.90;;;;;;5073457;28;20204;-83
2020/12/04 06:50:39;;;;;;;0.57;0.57;;;-0.10;99.90;;;;;;5072598;28;20721;-83
2020/12/04 06:53:07;;;;;;;0.60;0.60;;;-0.10;99.90;;;;;;5072991;28;20627;-83
2020/12/04 06:55:33;;;;;;;0.60;0.60;;;-0.20;99.90;;;;;;5073124;28;20212;-83
2020/12/04 06:57:59;;;;;;;0.55;0.55;;;-0.20;99.90;;;;;;5073093;28;20207;-84
2020/12/04 07:00:25;;;;;;;0.60;0.60;;;-0.20;99.90;;;;;;5073164;28;20302;-83
2020/12/04 07:02:52;;;;;;;0.60;0.60;;;-0.20;99.90;;;;;;5073051;28;20231;-83
2020/12/04 07:05:23;;;;;;;0.60;0.60;;;-0.20;99.90;;;;;;5072464;28;20348;-83
2020/12/04 07:07:49;;;;;;;0.60;0.60;;;-0.20;99.90;;;;;;5072619;28;20619;-83
2020/12/04 07:10:15;;;;;;;0.60;0.60;;;-0.10;99.90;;;;;;5072492;28;20266;-83
2020/12/04 07:12:42;;;;;;;0.60;0.60;;;-0.20;99.90;;;;;;5072603;28;20722;-83
2020/12/04 07:15:08;;;;;;;0.50;0.50;;;-0.20;99.90;;;;;;5072358;28;20670;-83
2020/12/04 07:17:34;;;;;;;0.50;0.50;;;-0.20;99.90;;;;;;5072534;28;20254;-83
2020/12/04 07:20:00;;;;;;;0.50;0.50;;;-0.20;99.90;;;;;;5072910;28;20199;-83
2020/12/04 07:22:28;;;;;;;0.55;0.55;;;-0.20;99.90;;;;;;5073193;28;20223;-84
2020/12/04 07:24:56;;;;;;;0.55;0.55;;;-0.20;99.90;;;;;;5073797;28;20199;-83
2020/12/04 07:27:26;;;;;;;0.50;0.50;;;-0.20;99.90;;;;;;5073277;28;20203;-84
2020/12/04 07:29:52;;;;;;;0.50;0.50;;;-0.20;99.90;;;;;;5073543;28;20208;-84
2020/12/04 07:32:20;;;;;;;0.52;0.52;;;-0.10;99.90;;;;;;5081809;28;20199;-84
2020/12/04 07:34:46;;;;;;;0.50;0.50;;;-0.10;99.90;;;;;;5073130;28;20210;-81
2020/12/04 07:37:12;;;;;;;0.50;0.50;;;-0.10;99.90;;;;;;5070787;28;20200;-84
2020/12/04 07:39:40;;;;;;;0.60;0.60;;;-0.10;99.90;;;;;;5070344;28;20208;-85
2020/12/04 07:42:09;;;;;;;0.60;0.60;;;-0.10;99.90;;;;;;5071451;28;20344;-84
2020/12/04 07:44:36;;;;;;;0.60;0.60;;;0.00;99.90;;;;;;5072116;28;20291;-83
2020/12/04 07:47:08;;;;;;;0.55;0.55;;;0.00;99.90;;;;;;5073145;28;20215;-84
2020/12/04 07:49:36;;;;;;;0.60;0.60;;;0.00;99.90;;;;;;5072922;28;20265;-84
2020/12/04 07:52:13;;;;;;;0.60;0.60;;;0.00;99.90;;;;;;5072971;28;20203;-84
2020/12/04 07:54:41;;;;;;;0.60;0.60;;;0.00;99.90;;;;;;5072369;28;20261;-85
2020/12/04 07:57:08;;;;;;;0.60;0.60;;;0.00;99.90;;;;;;5072759;28;20195;-84
2020/12/04 07:59:36;;;;;;;0.50;0.50;;;0.00;99.90;;;;;;5070568;28;20214;-84
2020/12/04 08:02:04;;;;;;;0.60;0.60;;;0.00;99.90;;;;;;5072026;28;20203;-84
2020/12/04 08:04:33;;;;;;;0.60;0.60;;;0.00;99.90;;;;;;5072440;28;20269;-84
2020/12/04 08:07:07;;;;;;;0.60;0.60;;;0.10;99.90;;;;;;5072226;28;20204;-84
2020/12/04 08:09:38;;;;;;;0.50;0.50;;;0.10;99.90;;;;;;5072305;28;20212;-84
2020/12/04 08:12:13;;;;;;;0.60;0.60;;;0.10;99.90;;;;;;5072074;28;20713;-84
2020/12/04 08:14:41;;;;;;;0.60;0.60;;;0.10;99.90;;;;;;5072305;28;20301;-84
2020/12/04 08:17:08;;;;;;;0.50;0.50;;;0.10;99.90;;;;;;5070803;28;20214;-85
2020/12/04 08:19:36;;;;;;;0.60;0.60;;;0.20;99.90;;;;;;5071830;28;20199;-84
2020/12/04 08:22:05;;;;;;;0.57;0.57;;;0.20;99.90;;;;;;5071943;28;20663;-84
2020/12/04 08:24:33;;;;;;;0.50;0.50;;;0.20;99.90;;;;;;5071934;28;20196;-84
2020/12/04 08:27:11;;;;;;;0.60;0.60;;;0.20;99.90;;;;;;5071865;28;20206;-84
2020/12/04 08:29:40;;;;;;;0.57;0.57;;;0.20;99.90;;;;;;5071695;28;20254;-84
2020/12/04 08:32:20;;;;;;;0.60;0.60;;;0.20;99.90;;;;;;5072095;28;20253;-85
2020/12/04 08:34:50;;;;;;;0.60;0.60;;;0.20;99.90;;;;;;5071971;28;20721;-86
2020/12/04 08:37:18;;;;;;;0.50;0.50;;;0.20;99.90;;;;;;5071018;28;21018;-85
2020/12/04 08:39:49;;;;;;;0.60;0.60;;;0.30;99.90;;;;;;5071674;28;20604;-85
2020/12/04 08:42:29;;;;;;;0.60;0.60;;;0.20;99.90;;;;;;5071567;28;20196;-84
2020/12/04 08:45:01;;;;;;;0.50;0.50;;;0.20;99.90;;;;;;5071165;28;20901;-85
2020/12/04 08:47:29;;;;;;;0.60;0.60;;;0.20;99.90;;;;;;5071784;28;20651;-85
2020/12/04 08:49:56;;;;;;;0.60;0.60;;;0.20;99.90;;;;;;5071608;28;20434;-85
2020/12/04 08:52:50;;;;;;;0.60;0.60;;;0.30;99.90;;;;;;5071444;28;20195;-85
2020/12/04 08:55:20;;;;;;;0.55;0.55;;;0.20;99.90;;;;;;5066516;28;20698;-84
2020/12/04 08:57:49;;;;;;;0.50;0.50;;;0.20;99.90;;;;;;5069589;28;20215;-84
2020/12/04 09:00:17;;;;;;;0.60;0.60;;;0.20;99.90;;;;;;5069196;28;20210;-84
2020/12/04 09:02:44;;;;;;;0.60;0.60;;;0.20;99.90;;;;;;5069349;28;20273;-83
2020/12/04 09:05:13;;;;;;;0.60;0.60;;;0.10;99.90;;;;;;5069569;28;20274;-83
2020/12/04 09:07:39;;;;;;;0.57;0.57;;;0.20;99.90;;;;;;5069215;28;20200;-85
2020/12/04 09:10:07;;;;;;;0.60;0.60;;;0.30;99.90;;;;;;5071625;28;20208;-84
2020/12/04 09:12:34;;;;;;;0.57;0.57;;;0.30;99.90;;;;;;5071253;28;20823;-84
2020/12/04 09:15:01;;;;;;;0.60;0.60;;;0.30;99.90;;;;;;5073450;28;20199;-84
2020/12/04 09:17:27;;;;;;;0.60;0.60;;;0.30;99.90;;;;;;5075464;28;20199;-84
2020/12/04 09:19:54;;;;;;;0.60;0.60;;;0.30;99.90;;;;;;5075414;28;20204;-85
2020/12/04 09:22:20;;;;;;;0.60;0.60;;;0.30;99.90;;;;;;5074434;28;20898;-84
2020/12/04 09:24:46;;;;;;;0.60;0.60;;;0.30;99.90;;;;;;5074948;28;20257;-84
2020/12/04 09:27:12;;;;;;;0.60;0.60;;;0.30;99.90;;;;;;5075286;28;20602;-84
2020/12/04 09:29:38;;;;;;;0.60;0.60;;;0.40;99.90;;;;;;5074837;28;20257;-85
2020/12/04 09:32:12;;;;;;;0.60;0.60;;;0.40;99.90;;;;;;5074785;28;20204;-84
2020/12/04 09:34:38;;;;;;;0.60;0.60;;;0.90;99.90;;;;;;5070552;28;20191;-84
2020/12/04 09:37:22;;;;;;;0.60;0.60;;;0.40;99.90;;;;;;5074441;28;20613;-84
2020/12/04 09:39:51;;;;;;;0.60;0.60;;;0.50;99.90;;;;;;5072336;28;20212;-84
2020/12/04 09:42:18;;;;;;;0.60;0.60;;;0.50;99.90;;;;;;5067682;28;20210;-85
2020/12/04 09:44:45;;;;;;;0.57;0.57;;;0.50;99.90;;;;;;5071180;28;20249;-85
2020/12/04 09:47:13;;;;;;;0.60;0.60;;;0.50;99.90;;;;;;5074414;28;20204;-85
2020/12/04 09:49:41;;;;;;;0.50;0.50;;;0.50;99.90;;;;;;5073485;28;20200;-86
2020/12/04 09:52:08;;;;;;;0.50;0.50;;;0.60;99.90;;;;;;5074923;28;20594;-85
2020/12/04 09:54:36;;;;;;;0.60;0.60;;;0.60;99.90;;;;;;5074486;28;20192;-85
2020/12/04 09:57:05;;;;;;;0.60;0.60;;;0.60;99.90;;;;;;5074220;28;20631;-85
2020/12/04 09:59:31;;;;;;;0.60;0.60;;;0.60;99.90;;;;;;5070930;28;20219;-85
2020/12/04 10:01:58;;;;;;;0.60;0.60;;;0.60;99.90;;;;;;5075634;28;20195;-86
2020/12/04 10:04:25;;;;;;;0.50;0.50;;;0.60;99.90;;;;;;5073543;28;20282;-85
2020/12/04 10:06:54;;;;;;;0.60;0.60;;;0.70;99.90;;;;;;5092916;28;20198;-86
2020/12/04 10:09:22;;;;;;;0.60;0.60;;;0.70;99.90;;;;;;5092262;28;20203;-85
2020/12/04 10:11:51;;;;;;;0.50;0.50;;;0.70;99.90;;;;;;5093009;28;20636;-85
2020/12/04 10:14:18;;;;;;;0.60;0.60;;;0.70;99.90;;;;;;5094219;28;20200;-85
2020/12/04 10:16:46;;;;;;;0.60;0.60;;;0.80;99.90;;;;;;5094066;28;20215;-84
2020/12/04 10:19:13;;;;;;;0.60;0.60;;;0.80;99.90;;;;;;5084519;28;20195;-84
2020/12/04 10:21:45;;;;;;;0.60;0.60;;;0.80;99.90;;;;;;5073083;28;20196;-84
2020/12/04 10:24:12;;;;;;;0.50;0.50;;;0.80;99.90;;;;;;5073067;28;20224;-85
2020/12/04 10:26:41;;;;;;;0.50;0.50;;;0.80;99.90;;;;;;5073483;28;20192;-85
2020/12/04 10:29:08;;;;;;;0.60;0.60;;;1.00;99.90;;;;;;5073701;28;20199;-85
2020/12/04 10:31:34;;;;;;;0.60;0.60;;;0.80;99.90;;;;;;5073017;28;20208;-84
2020/12/04 10:34:00;;;;;;;0.60;0.60;;;0.80;99.90;;;;;;5072661;28;20239;-85
2020/12/04 10:36:27;;;;;;;0.60;0.60;;;0.90;99.90;;;;;;5072834;28;20253;-85
2020/12/04 10:38:57;;;;;;;0.50;0.50;;;0.90;99.90;;;;;;5073350;28;20578;-85
2020/12/04 10:41:23;;;;;;;0.60;0.60;;;0.90;99.90;;;;;;5073290;28;20204;-85
2020/12/04 10:43:50;;;;;;;0.50;0.50;;;0.90;99.90;;;;;;5074805;28;20231;-84
2020/12/04 10:46:16;;;;;;;0.60;0.60;;;1.00;99.90;;;;;;5073833;28;20214;-85
2020/12/04 10:48:42;;;;;;;0.60;0.60;;;1.10;99.90;;;;;;5073198;28;20285;-85
2020/12/04 10:51:09;;;;;;;0.60;0.60;;;1.10;99.90;;;;;;5073318;28;20253;-84
2020/12/04 10:53:38;;;;;;;0.60;0.60;;;1.20;99.90;;;;;;5072117;28;20207;-85
2020/12/04 10:56:05;;;;;;;0.57;0.57;;;1.20;99.90;;;;;;5072484;28;20203;-85
2020/12/04 10:58:31;;;;;;;0.60;0.60;;;1.20;99.90;;;;;;5073225;28;20663;-85
2020/12/04 11:00:57;;;;;;;0.60;0.60;;;1.20;99.90;;;;;;5073342;28;20200;-85
2020/12/04 11:03:32;;;;;;;0.60;0.60;;;1.20;99.90;;;;;;5072990;28;20223;-84
2020/12/04 11:05:57;;;;;;;0.60;0.60;;;1.20;99.90;;;;;;5072712;28;20198;-85
2020/12/04 11:08:24;;;;;;;0.60;0.60;;;1.30;99.90;;;;;;5072577;28;20287;-85
2020/12/04 11:10:50;;;;;;;0.60;0.60;;;1.30;99.90;;;;;;5072598;28;20706;-84
2020/12/04 11:13:17;;;;;;;0.50;0.50;;;1.30;99.90;;;;;;5072626;28;20256;-85
2020/12/04 11:15:43;;;;;;;0.60;0.60;;;1.30;99.90;;;;;;5071588;28;20203;-85
2020/12/04 11:18:09;;;;;;;0.60;0.60;;;1.30;99.90;;;;;;5072626;28;20199;-85
2020/12/04 11:20:36;;;;;;;0.60;0.60;;;1.30;99.90;;;;;;5072303;28;20200;-85
2020/12/04 11:23:02;;;;;;;0.60;0.60;;;1.40;99.90;;;;;;5072486;28;20246;-85
2020/12/04 11:25:28;;;;;;;0.60;0.60;;;1.40;99.90;;;;;;5072425;28;20204;-84
2020/12/04 11:27:54;;;;;;;0.60;0.60;;;1.50;99.90;;;;;;5072566;28;20257;-85
2020/12/04 11:30:22;;;;;;;0.52;0.52;;;1.50;99.90;;;;;;5072606;28;20257;-84
2020/12/04 11:32:52;;;;;;;0.60;0.60;;;1.60;99.90;;;;;;5072536;28;20292;-84
2020/12/04 11:35:19;;;;;;;0.60;0.60;;;1.60;99.90;;;;;;5072210;28;20208;-85
2020/12/04 11:37:48;;;;;;;0.50;0.50;;;1.70;99.90;;;;;;5071794;28;20253;-85
2020/12/04 11:40:17;;;;;;;0.50;0.50;;;1.70;99.90;;;;;;5072228;28;20303;-85
2020/12/04 11:42:44;;;;;;;0.60;0.60;;;1.80;99.90;;;;;;5071999;28;20207;-85
2020/12/04 11:45:13;;;;;;;0.60;0.60;;;1.80;99.90;;;;;;5072488;28;20200;-85
2020/12/04 11:47:40;;;;;;;0.50;0.50;;;1.90;99.90;;;;;;5072013;28;20219;-85
2020/12/04 11:50:08;;;;;;;0.60;0.60;;;1.90;99.90;;;;;;5072521;28;20619;-85
2020/12/04 11:52:34;;;;;;;0.60;0.60;;;1.90;99.90;;;;;;5071953;28;20198;-85
2020/12/04 11:55:00;;;;;;;0.60;0.60;;;2.00;99.90;;;;;;5072253;28;20207;-85
2020/12/04 11:57:27;;;;;;;0.52;0.52;;;2.00;99.90;;;;;;5072016;28;20212;-84
2020/12/04 11:59:53;;;;;;;0.60;0.60;;;2.00;99.90;;;;;;5071911;28;20694;-85
2020/12/04 12:02:19;;;;;;;0.50;0.50;;;2.00;99.90;;;;;;5071790;28;20225;-85
2020/12/04 12:04:46;;;;;;;0.60;0.60;;;1.90;99.90;;;;;;5071658;28;20697;-84
2020/12/04 12:07:12;;;;;;;0.60;0.60;;;1.90;99.90;;;;;;5071799;28;20199;-85
2020/12/04 12:09:38;;;;;;;0.55;0.55;;;1.90;99.90;;;;;;5070508;28;20196;-85
2020/12/04 12:12:05;;;;;;;0.60;0.60;;;1.90;99.90;;;;;;5071725;28;20265;-85
2020/12/04 12:14:31;;;;;;;0.60;0.60;;;2.00;99.90;;;;;;5072386;28;20598;-85
2020/12/04 12:16:57;;;;;;;0.60;0.60;;;2.00;99.90;;;;;;5072524;28;20205;-85
2020/12/04 12:19:24;;;;;;;0.52;0.52;;;2.00;99.90;;;;;;5072518;28;20211;-84
2020/12/04 12:21:51;;;;;;;0.60;0.60;;;2.00;99.90;;;;;;5072285;28;20208;-84
2020/12/04 12:24:17;;;;;;;0.60;0.60;;;2.00;99.90;;;;;;5071515;28;20223;-84
2020/12/04 12:26:43;;;;;;;0.60;0.60;;;2.10;99.90;;;;;;5071115;28;20204;-84
2020/12/04 12:29:09;;;;;;;0.52;0.52;;;2.10;99.90;;;;;;5071463;28;20207;-84
2020/12/04 12:31:36;;;;;;;0.60;0.60;;;2.20;99.90;;;;;;5070735;28;20203;-84
2020/12/04 12:34:05;;;;;;;0.60;0.60;;;2.20;99.90;;;;;;5070724;28;20732;-84
2020/12/04 12:36:31;;;;;;;0.60;0.60;;;2.30;99.90;;;;;;5070803;28;20277;-84
2020/12/04 12:38:58;;;;;;;0.60;0.60;;;2.40;99.90;;;;;;5071025;28;20204;-84
2020/12/04 12:41:27;;;;;;;0.55;0.55;;;2.40;99.90;;;;;;5071518;28;20347;-84
2020/12/04 12:43:53;;;;;;;0.52;0.52;;;2.50;99.90;;;;;;5071732;28;20284;-84
2020/12/04 12:46:20;;;;;;;0.60;0.60;;;2.50;99.90;;;;;;5071294;28;20199;-84
2020/12/04 12:48:46;;;;;;;0.60;0.60;;;2.50;99.90;;;;;;5070900;28;20238;-84
2020/12/04 12:51:15;;;;;;;0.60;0.60;;;2.60;99.90;;;;;;5071782;28;20593;-84
2020/12/04 12:53:42;;;;;;;0.52;0.52;;;2.60;99.90;;;;;;5071576;28;20265;-84
2020/12/04 12:56:10;;;;;;;0.60;0.60;;;2.60;99.90;;;;;;5071951;28;20203;-84